Viking, Canada
Current Conditions -  °F | °C
As of 6:00 AM on Wednesday 26 Nov 2014 (Local Time) from CYLL Reporting Station
Overcast Overcast  
Wind Chill: -15°   Ceiling: 5500
Heat Index:   Visibility: 9mi
Dew Point: -4°   Wind: 8mph
Humidity: 85%   Direction: 120°ESE
Pressure: 30.26"   Gusts: NA
Location:  53.08°N, 111.78°W
Report Text: CYLL 261300Z AUTO 12007KT 9SM OVC055 M18/M20 A3026 RMK SLP311
Loading
Personal Weather Stations






























Interactive Weather Map New forecast layout! Learn more

10-Day Weather Forecast

Advertisements
Track Severe Weather on mobile